createdAt,value
2023-06-02T07:46:01.165Z,37.76
2023-06-02T07:46:12.585Z,37.54
2023-06-02T07:46:24.172Z,37.31
2023-06-02T07:46:35.511Z,37.25
2023-06-02T07:46:47.152Z,37.20
2023-06-02T07:46:58.552Z,37.18
2023-06-02T07:47:10.273Z,37.15
2023-06-02T07:47:21.620Z,37.14
2023-06-02T07:47:33.253Z,37.11
2023-06-02T07:47:44.693Z,37.11
2023-06-02T07:47:56.377Z,37.08
2023-06-02T07:48:07.768Z,37.10
2023-06-02T07:48:19.415Z,37.07
2023-06-02T07:48:30.769Z,37.08
2023-06-02T07:48:42.337Z,37.06
2023-06-02T07:48:53.665Z,37.06
2023-06-02T07:49:05.270Z,37.04
2023-06-02T07:49:16.589Z,37.05
2023-06-02T07:49:28.196Z,37.02
2023-06-02T07:49:39.574Z,37.01
2023-06-02T07:49:51.210Z,37.02
2023-06-02T07:50:02.602Z,37.05
2023-06-02T07:50:14.190Z,37.02
2023-06-02T07:50:25.631Z,37.03
2023-06-02T07:50:37.247Z,37.00
2023-06-02T07:50:48.569Z,36.99
2023-06-02T07:51:00.177Z,37.01
2023-06-02T07:51:11.500Z,37.00
2023-06-02T07:51:23.075Z,37.00
2023-06-02T07:51:34.408Z,36.99
2023-06-02T07:51:45.990Z,37.00
2023-06-02T07:51:57.435Z,36.99
2023-06-02T07:52:09.024Z,36.98
2023-06-02T07:52:20.465Z,37.00
2023-06-02T07:52:32.037Z,36.97
2023-06-02T07:52:43.353Z,37.00
2023-06-02T07:52:54.944Z,36.98
2023-06-02T07:53:06.265Z,36.99
2023-06-02T07:53:17.850Z,36.98
2023-06-02T07:53:29.204Z,36.96
2023-06-02T07:53:40.863Z,36.97
2023-06-02T07:53:52.241Z,36.98
2023-06-02T07:54:03.839Z,36.98
2023-06-02T07:54:15.166Z,36.98
2023-06-02T07:54:26.790Z,36.96
2023-06-02T07:54:38.103Z,36.95
2023-06-02T07:54:49.693Z,36.98
2023-06-02T07:55:01.016Z,36.96
2023-06-02T07:55:12.647Z,36.98
2023-06-02T07:55:23.976Z,36.99
2023-06-02T07:55:35.642Z,36.95
2023-06-02T07:55:47.018Z,36.96
2023-06-02T07:55:58.639Z,36.95
2023-06-02T07:56:10.015Z,36.96
2023-06-02T07:56:21.758Z,36.95
2023-06-02T07:56:33.100Z,36.96
2023-06-02T07:56:44.687Z,36.97
2023-06-02T07:56:56.042Z,36.97
2023-06-02T07:57:07.627Z,36.98
2023-06-02T07:57:18.958Z,36.98
2023-06-02T07:57:30.555Z,36.96
2023-06-02T07:57:41.903Z,36.97
2023-06-02T07:57:53.486Z,36.94
2023-06-02T07:58:04.816Z,36.99
2023-06-02T07:58:16.425Z,36.96
2023-06-02T07:58:27.766Z,36.96
2023-06-02T07:58:39.336Z,36.98
2023-06-02T07:58:50.687Z,36.98
2023-06-02T07:59:02.285Z,36.97
2023-06-02T07:59:13.660Z,36.96
2023-06-02T07:59:25.218Z,36.97
2023-06-02T07:59:36.520Z,36.99
2023-06-02T07:59:48.097Z,36.96
2023-06-02T07:59:59.421Z,36.97
2023-06-02T08:00:11.001Z,36.97
2023-06-02T08:00:22.333Z,36.96
2023-06-02T08:00:33.907Z,36.98
2023-06-02T08:00:45.220Z,36.98
2023-06-02T08:00:56.795Z,36.97
2023-06-02T08:01:08.247Z,36.97
2023-06-02T08:01:19.814Z,36.98
2023-06-02T08:01:31.145Z,36.99
2023-06-02T08:01:42.758Z,36.97
2023-06-02T08:01:54.119Z,36.97
2023-06-02T08:02:05.692Z,36.98
2023-06-02T08:02:17.231Z,36.97
2023-06-02T08:02:28.922Z,36.96
2023-06-02T08:02:40.336Z,36.98
2023-06-02T08:02:52.089Z,36.98
2023-06-02T08:03:03.508Z,36.98
2023-06-02T08:03:15.151Z,36.98
2023-06-02T08:03:26.592Z,36.96
2023-06-02T08:03:38.371Z,36.99
2023-06-02T08:03:50.023Z,36.98
2023-06-02T08:04:02.160Z,36.98
2023-06-02T08:04:13.729Z,36.97
2023-06-02T08:04:25.511Z,36.97
2023-06-02T08:04:37.007Z,36.99
2023-06-02T08:04:48.858Z,36.98
2023-06-02T08:05:00.434Z,36.99
2023-06-02T08:05:12.052Z,36.97
2023-06-02T08:05:23.389Z,36.96
2023-06-02T08:05:34.970Z,36.97
2023-06-02T08:05:46.294Z,36.97
2023-06-02T08:05:57.877Z,36.99
2023-06-02T08:06:09.184Z,36.98
2023-06-02T08:06:20.774Z,36.95
2023-06-02T08:06:32.094Z,36.98
2023-06-02T08:06:44.150Z,36.98
2023-06-02T08:06:55.805Z,36.94
2023-06-02T08:07:07.162Z,36.97
2023-06-02T08:07:18.762Z,36.96
2023-06-02T08:07:30.117Z,36.98
2023-06-02T08:07:41.708Z,36.97
2023-06-02T08:07:53.055Z,36.99
2023-06-02T08:08:05.286Z,36.99
2023-06-02T08:08:14.846Z,36.94
2023-06-02T08:08:26.427Z,36.96
2023-06-02T08:08:37.780Z,36.99
2023-06-02T08:08:49.370Z,36.98
2023-06-02T08:09:00.715Z,36.99
2023-06-02T08:09:12.304Z,36.98
2023-06-02T08:09:23.666Z,36.97
2023-06-02T08:09:35.244Z,36.96
2023-06-02T08:09:46.570Z,36.97
2023-06-02T08:09:58.152Z,36.98
2023-06-02T08:10:09.496Z,36.99
2023-06-02T08:10:21.076Z,36.99
2023-06-02T08:10:32.464Z,36.99
2023-06-02T08:10:44.073Z,36.98
2023-06-02T08:10:55.401Z,36.97
2023-06-02T08:11:06.997Z,36.98
2023-06-02T08:11:18.482Z,36.95
2023-06-02T08:11:30.472Z,36.97
2023-06-02T08:11:42.690Z,36.93
2023-06-02T08:11:54.527Z,36.94
2023-06-02T08:12:06.035Z,36.96
2023-06-02T08:12:18.087Z,36.96
2023-06-02T08:12:29.412Z,36.96
2023-06-02T08:12:40.991Z,36.95
2023-06-02T08:12:52.349Z,36.96
2023-06-02T08:13:03.918Z,36.96
2023-06-02T08:13:15.241Z,36.96
2023-06-02T08:13:27.037Z,36.99
2023-06-02T08:13:38.380Z,36.98
2023-06-02T08:13:49.962Z,36.96
2023-06-02T08:14:01.306Z,36.95
2023-06-02T08:14:12.869Z,36.95
2023-06-02T08:14:24.192Z,36.95
2023-06-02T08:14:35.795Z,36.97
2023-06-02T08:14:47.096Z,36.99
2023-06-02T08:14:58.704Z,36.95
2023-06-02T08:15:10.034Z,36.96
2023-06-02T08:15:21.767Z,36.96
2023-06-02T08:15:33.109Z,36.94
2023-06-02T08:15:45.933Z,36.97
2023-06-02T08:16:08.132Z,37.00
2023-06-02T08:16:30.379Z,37.02
2023-06-02T08:16:56.976Z,37.08
2023-06-02T08:17:01.046Z,37.06
2023-06-02T08:17:12.370Z,37.01
2023-06-02T08:17:23.954Z,36.97
2023-06-02T08:17:35.371Z,36.99
2023-06-02T08:17:47.212Z,36.97
2023-06-02T08:17:58.695Z,36.98
2023-06-02T08:18:10.351Z,36.98
2023-06-02T08:18:22.407Z,36.95
2023-06-02T08:18:34.163Z,36.96
2023-06-02T08:18:46.033Z,36.97
2023-06-02T08:18:57.491Z,36.96
2023-06-02T08:19:09.649Z,36.97
2023-06-02T08:19:21.219Z,37.00
2023-06-02T08:19:32.899Z,36.97
2023-06-02T08:19:44.264Z,36.98
2023-06-02T08:19:55.840Z,36.97
2023-06-02T08:20:07.189Z,36.95
2023-06-02T08:20:18.760Z,36.96
2023-06-02T08:20:30.074Z,36.97
2023-06-02T08:20:41.650Z,36.97
2023-06-02T08:20:53.062Z,36.95
2023-06-02T08:21:04.996Z,36.98
2023-06-02T08:21:16.473Z,36.97
2023-06-02T08:21:28.708Z,36.95
2023-06-02T08:21:40.088Z,36.96
2023-06-02T08:21:51.745Z,36.96
2023-06-02T08:22:03.157Z,36.96
2023-06-02T08:22:14.840Z,36.94
2023-06-02T08:22:26.247Z,36.96
2023-06-02T08:22:37.936Z,36.95
2023-06-02T08:22:49.288Z,36.97
2023-06-02T08:23:00.889Z,36.97
2023-06-02T08:23:12.238Z,36.96
2023-06-02T08:23:23.825Z,36.97
2023-06-02T08:23:35.182Z,36.95
2023-06-02T08:23:46.788Z,36.94
2023-06-02T08:23:58.220Z,36.96
2023-06-02T08:24:09.803Z,36.94
2023-06-02T08:24:21.133Z,36.94
2023-06-02T08:24:32.715Z,36.96
2023-06-02T08:24:44.072Z,36.95
2023-06-02T08:24:55.667Z,36.95
2023-06-02T08:25:07.066Z,36.94
2023-06-02T08:25:18.657Z,36.95
2023-06-02T08:25:29.966Z,36.95
2023-06-02T08:25:41.583Z,36.93
2023-06-02T08:25:52.915Z,36.96
2023-06-02T08:26:04.505Z,36.96
2023-06-02T08:26:15.829Z,36.94
2023-06-02T08:26:27.416Z,36.94
2023-06-02T08:26:38.785Z,36.92
2023-06-02T08:26:50.376Z,36.93
2023-06-02T08:27:01.696Z,36.95
2023-06-02T08:27:13.273Z,36.94
2023-06-02T08:27:24.593Z,36.95
2023-06-02T08:27:36.172Z,36.94
2023-06-02T08:27:47.496Z,36.93
2023-06-02T08:27:59.102Z,36.95
2023-06-02T08:28:10.462Z,36.94
2023-06-02T08:28:22.048Z,36.93
2023-06-02T08:28:33.419Z,36.94
2023-06-02T08:28:44.998Z,36.93
2023-06-02T08:28:56.328Z,36.92
2023-06-02T08:29:07.906Z,36.94
2023-06-02T08:29:19.238Z,36.94
2023-06-02T08:29:31.087Z,36.94
2023-06-02T08:29:42.844Z,36.90
2023-06-02T08:29:54.166Z,36.92
2023-06-02T08:30:05.758Z,36.95
2023-06-02T08:30:17.107Z,36.94
2023-06-02T08:30:28.697Z,36.94
2023-06-02T08:30:40.033Z,36.94
2023-06-02T08:30:51.717Z,36.92
2023-06-02T08:31:03.104Z,36.95
2023-06-02T08:31:14.820Z,36.92
2023-06-02T08:31:26.176Z,36.93
2023-06-02T08:31:38.080Z,36.91
2023-06-02T08:31:49.946Z,36.90
2023-06-02T08:32:01.328Z,36.93
2023-06-02T08:32:12.970Z,36.92
2023-06-02T08:32:27.020Z,36.93
2023-06-02T08:32:34.404Z,37.02
2023-06-02T08:32:45.740Z,36.96
2023-06-02T08:32:57.361Z,36.93
2023-06-02T08:33:08.762Z,36.93
2023-06-02T08:33:20.481Z,36.94
2023-06-02T08:33:31.798Z,36.96
2023-06-02T08:33:43.425Z,36.94
2023-06-02T08:33:54.784Z,36.93
2023-06-02T08:34:06.418Z,36.92
2023-06-02T08:34:17.740Z,36.94
2023-06-02T08:34:29.316Z,36.90
2023-06-02T08:34:40.635Z,36.94
2023-06-02T08:34:52.222Z,36.92
2023-06-02T08:35:03.585Z,36.94
2023-06-02T08:35:15.195Z,36.93
2023-06-02T08:35:26.654Z,36.92
2023-06-02T08:35:38.369Z,36.91
2023-06-02T08:35:49.801Z,36.92
2023-06-02T08:36:01.511Z,36.91
2023-06-02T08:36:12.955Z,36.95
2023-06-02T08:36:36.014Z,36.93
2023-06-02T08:36:47.777Z,36.93
2023-06-02T08:36:59.270Z,36.92
2023-06-02T08:37:10.870Z,36.91
2023-06-02T08:37:22.194Z,36.92
2023-06-02T08:37:33.801Z,36.93
2023-06-02T08:37:45.132Z,36.91
2023-06-02T08:37:56.736Z,36.92
2023-06-02T08:38:08.069Z,36.93
2023-06-02T08:38:19.653Z,36.94
2023-06-02T08:38:31.111Z,36.95
2023-06-02T08:38:42.714Z,36.94
2023-06-02T08:38:54.089Z,36.92
2023-06-02T08:39:05.640Z,36.94
2023-06-02T08:39:16.993Z,36.92
2023-06-02T08:39:28.571Z,36.91
2023-06-02T08:39:39.902Z,36.91
2023-06-02T08:39:51.497Z,36.93
2023-06-02T08:40:02.813Z,36.93
2023-06-02T08:40:14.457Z,36.92
2023-06-02T08:40:25.807Z,36.92
2023-06-02T08:40:37.396Z,36.92
2023-06-02T08:40:48.733Z,36.91
2023-06-02T08:41:00.338Z,36.91
2023-06-02T08:41:11.652Z,36.92
2023-06-02T08:41:23.219Z,36.89
2023-06-02T08:41:34.554Z,36.92
2023-06-02T08:41:46.161Z,36.88
2023-06-02T08:41:57.475Z,36.90
2023-06-02T08:42:09.072Z,36.88
2023-06-02T08:42:20.404Z,36.89
2023-06-02T08:42:32.019Z,36.89
2023-06-02T08:42:43.370Z,36.88
2023-06-02T08:42:54.924Z,36.90
2023-06-02T08:43:06.273Z,36.90
2023-06-02T08:43:17.871Z,36.89
2023-06-02T08:43:29.206Z,36.86
2023-06-02T08:43:40.806Z,36.88
2023-06-02T08:43:52.188Z,36.89
2023-06-02T08:44:03.767Z,36.90
2023-06-02T08:44:15.103Z,36.87
2023-06-02T08:44:26.703Z,36.88
2023-06-02T08:44:38.049Z,36.89
2023-06-02T08:44:49.629Z,36.87
2023-06-02T08:45:00.971Z,36.89
2023-06-02T08:45:12.566Z,36.86
2023-06-02T08:45:23.916Z,36.90
2023-06-02T08:45:35.538Z,36.89
2023-06-02T08:45:46.850Z,36.87
2023-06-02T08:45:58.497Z,36.86
2023-06-02T08:46:09.870Z,36.88
2023-06-02T08:46:21.476Z,36.89
2023-06-02T08:46:32.917Z,36.87
2023-06-02T08:46:44.772Z,36.87
2023-06-02T08:46:56.253Z,36.91
2023-06-02T08:47:07.947Z,36.88
2023-06-02T08:47:19.298Z,36.87
2023-06-02T08:47:30.949Z,36.88
2023-06-02T08:47:42.308Z,36.86
2023-06-02T08:47:53.984Z,36.89
2023-06-02T08:48:05.331Z,36.87
2023-06-02T08:48:16.903Z,36.88
2023-06-02T08:48:28.220Z,36.86
2023-06-02T08:48:39.810Z,36.88
2023-06-02T08:48:51.149Z,36.88
2023-06-02T08:49:02.747Z,36.90
2023-06-02T08:49:14.066Z,36.86
2023-06-02T08:49:25.672Z,36.88
2023-06-02T08:49:37.005Z,36.87
2023-06-02T08:49:48.609Z,36.87
2023-06-02T08:49:59.946Z,36.89
2023-06-02T08:50:11.554Z,36.89
2023-06-02T08:50:22.921Z,36.88
2023-06-02T08:50:34.550Z,36.87
2023-06-02T08:50:45.982Z,36.87
2023-06-02T08:50:57.635Z,36.85
2023-06-02T08:51:08.952Z,36.88
2023-06-02T08:51:20.526Z,36.87
2023-06-02T08:51:31.864Z,36.90
2023-06-02T08:51:43.443Z,36.88
2023-06-02T08:51:54.793Z,36.87
2023-06-02T08:52:06.393Z,36.87
2023-06-02T08:52:17.729Z,36.88
2023-06-02T08:52:29.292Z,36.87
2023-06-02T08:52:40.626Z,36.86
2023-06-02T08:52:52.211Z,36.88
2023-06-02T08:53:03.536Z,36.87
2023-06-02T08:53:15.144Z,36.89
2023-06-02T08:53:26.469Z,36.87
2023-06-02T08:53:38.072Z,36.83
2023-06-02T08:53:49.390Z,36.87
2023-06-02T08:54:01.014Z,36.87
2023-06-02T08:54:12.327Z,36.83
2023-06-02T08:54:23.934Z,36.85
2023-06-02T08:54:35.266Z,36.88
2023-06-02T08:54:46.844Z,36.89
2023-06-02T08:54:58.182Z,36.85
2023-06-02T08:55:09.756Z,36.89
2023-06-02T08:55:21.071Z,36.87
2023-06-02T08:55:32.668Z,36.86
2023-06-02T08:55:44.008Z,36.86
2023-06-02T08:55:55.587Z,36.86
2023-06-02T08:56:07.167Z,36.87
2023-06-02T08:56:19.018Z,36.87
2023-06-02T08:56:30.426Z,36.87
2023-06-02T08:56:42.068Z,36.87
2023-06-02T08:56:53.466Z,36.88
2023-06-02T08:57:05.076Z,36.88
2023-06-02T08:57:16.423Z,36.86
2023-06-02T08:57:28.009Z,36.85
2023-06-02T08:57:39.324Z,36.87
2023-06-02T08:57:50.937Z,36.87
2023-06-02T08:58:02.288Z,36.85
2023-06-02T08:58:13.937Z,36.87
2023-06-02T08:58:25.260Z,36.87
2023-06-02T08:58:36.856Z,36.88
2023-06-02T08:58:48.280Z,36.86
2023-06-02T08:58:59.872Z,36.87
2023-06-02T08:59:11.212Z,36.88
2023-06-02T08:59:22.795Z,36.84
2023-06-02T08:59:34.110Z,36.87
2023-06-02T08:59:45.686Z,36.86
2023-06-02T08:59:57.010Z,36.88
2023-06-02T09:00:08.650Z,36.86
2023-06-02T09:00:19.956Z,36.86
2023-06-02T09:00:31.520Z,36.87
2023-06-02T09:00:42.871Z,36.88
2023-06-02T09:00:54.456Z,36.86
2023-06-02T09:01:05.795Z,36.88
2023-06-02T09:01:17.462Z,36.86
2023-06-02T09:01:28.890Z,36.87
2023-06-02T09:01:40.492Z,36.88
2023-06-02T09:01:51.887Z,36.87
2023-06-02T09:02:03.564Z,36.87
2023-06-02T09:02:14.955Z,36.86
2023-06-02T09:02:26.594Z,36.86
2023-06-02T09:02:37.960Z,36.85
2023-06-02T09:02:49.616Z,36.84
2023-06-02T09:03:00.963Z,36.88
2023-06-02T09:03:20.386Z,36.89
2023-06-02T09:03:44.717Z,36.97
2023-06-02T09:03:48.701Z,37.00
2023-06-02T09:04:00.698Z,36.90
2023-06-02T09:04:12.092Z,36.90
2023-06-02T09:04:23.714Z,36.90
2023-06-02T09:04:35.142Z,36.90
2023-06-02T09:04:46.810Z,36.89
2023-06-02T09:04:58.210Z,36.89
2023-06-02T09:05:09.834Z,36.90
2023-06-02T09:05:21.154Z,36.89
2023-06-02T09:05:32.740Z,36.87
2023-06-02T09:05:44.065Z,36.89
2023-06-02T09:05:55.663Z,36.89
2023-06-02T09:06:07.201Z,36.88
2023-06-02T09:06:18.923Z,36.88
2023-06-02T09:06:30.232Z,36.89
2023-06-02T09:06:41.812Z,36.88
2023-06-02T09:06:53.142Z,36.89
2023-06-02T09:07:04.743Z,36.87
2023-06-02T09:07:16.074Z,36.88
2023-06-02T09:07:27.645Z,36.88
2023-06-02T09:07:38.978Z,36.83
2023-06-02T09:07:50.578Z,36.88
2023-06-02T09:08:01.900Z,36.85
2023-06-02T09:08:13.525Z,36.84
2023-06-02T09:08:24.861Z,36.87
2023-06-02T09:08:36.443Z,36.85
2023-06-02T09:08:47.781Z,36.87
2023-06-02T09:08:59.388Z,36.84
2023-06-02T09:09:10.702Z,36.85
2023-06-02T09:09:22.279Z,36.83
2023-06-02T09:09:33.599Z,36.86
2023-06-02T09:09:45.186Z,36.85
2023-06-02T09:09:58.437Z,36.85
2023-06-02T09:10:08.054Z,36.92
2023-06-02T09:10:19.654Z,36.85
2023-06-02T09:10:30.997Z,36.86
2023-06-02T09:10:42.590Z,36.83
2023-06-02T09:10:53.919Z,36.86
2023-06-02T09:11:05.509Z,36.85
2023-06-02T09:11:16.832Z,36.85
2023-06-02T09:11:28.420Z,36.85
2023-06-02T09:11:39.738Z,36.83
2023-06-02T09:11:51.338Z,36.86
2023-06-02T09:12:02.697Z,36.86
2023-06-02T09:12:14.302Z,36.86
2023-06-02T09:12:25.806Z,36.88
2023-06-02T09:12:37.508Z,36.85
2023-06-02T09:12:48.866Z,36.85
2023-06-02T09:13:00.415Z,36.83
2023-06-02T09:13:11.780Z,36.85
2023-06-02T09:13:23.360Z,36.85
2023-06-02T09:13:41.588Z,36.85
2023-06-02T09:13:46.717Z,36.98
2023-06-02T09:13:58.058Z,36.91
2023-06-02T09:14:09.636Z,36.87
2023-06-02T09:14:20.993Z,36.86
2023-06-02T09:14:32.559Z,36.85
2023-06-02T09:14:43.895Z,36.87
2023-06-02T09:14:55.466Z,36.86
2023-06-02T09:15:08.169Z,36.85
2023-06-02T09:15:17.576Z,36.91
2023-06-02T09:15:29.187Z,36.85
2023-06-02T09:15:40.528Z,36.86
2023-06-02T09:15:52.180Z,36.87
2023-06-02T09:16:04.302Z,36.86
2023-06-02T09:16:13.857Z,36.87
2023-06-02T09:16:25.548Z,36.87
2023-06-02T09:16:36.967Z,36.86
2023-06-02T09:16:48.597Z,36.87
2023-06-02T09:16:59.963Z,36.87
2023-06-02T09:17:11.527Z,36.86
2023-06-02T09:17:22.896Z,36.84
2023-06-02T09:17:34.533Z,36.86
2023-06-02T09:17:45.880Z,36.86
2023-06-02T09:17:57.482Z,36.85
2023-06-02T09:18:08.845Z,36.85
2023-06-02T09:18:21.234Z,36.85
2023-06-02T09:18:31.503Z,36.85
2023-06-02T09:18:43.111Z,36.86
2023-06-02T09:18:54.462Z,36.86
2023-06-02T09:19:06.058Z,36.84
2023-06-02T09:19:17.389Z,36.87
2023-06-02T09:19:28.969Z,36.87
2023-06-02T09:19:40.290Z,36.85
2023-06-02T09:19:51.889Z,36.85
2023-06-02T09:20:03.206Z,36.84
2023-06-02T09:20:14.790Z,36.85
2023-06-02T09:20:26.139Z,36.84
2023-06-02T09:20:37.704Z,36.86
2023-06-02T09:20:49.025Z,36.85
2023-06-02T09:21:00.746Z,36.87
2023-06-02T09:21:12.091Z,36.86
2023-06-02T09:21:23.727Z,36.85
2023-06-02T09:21:35.108Z,36.85
2023-06-02T09:21:46.771Z,36.86
2023-06-02T09:21:58.106Z,36.85
2023-06-02T09:22:09.806Z,36.84
2023-06-02T09:22:21.187Z,36.85
2023-06-02T09:22:35.598Z,36.86
2023-06-02T09:22:49.173Z,36.94
2023-06-02T09:22:56.860Z,36.96
2023-06-02T09:23:08.234Z,36.91
2023-06-02T09:23:19.891Z,36.86
2023-06-02T09:23:33.470Z,36.86
2023-06-02T09:23:42.712Z,36.93
2023-06-02T09:24:11.439Z,36.86
2023-06-02T09:24:16.344Z,36.91
2023-06-02T09:24:27.668Z,36.87
2023-06-02T09:24:39.241Z,36.86
2023-06-02T09:24:50.561Z,36.87
2023-06-02T09:25:02.155Z,36.85
2023-06-02T09:25:13.475Z,36.87
2023-06-02T09:25:25.063Z,36.84
2023-06-02T09:25:36.425Z,36.84
2023-06-02T09:25:48.064Z,36.84
2023-06-02T09:26:05.939Z,36.88
2023-06-02T09:26:16.902Z,37.03
2023-06-02T09:26:23.566Z,37.03
2023-06-02T09:26:35.062Z,36.97
2023-06-02T09:26:46.636Z,36.91
2023-06-02T09:26:57.960Z,36.89
2023-06-02T09:27:09.537Z,36.91
2023-06-02T09:27:20.858Z,36.89
2023-06-02T09:27:32.450Z,36.90
2023-06-02T09:27:43.935Z,36.89
2023-06-02T09:27:55.509Z,36.88
2023-06-02T09:28:06.841Z,36.89
2023-06-02T09:28:18.443Z,36.87
2023-06-02T09:28:32.305Z,36.89
2023-06-02T09:28:41.661Z,36.96
2023-06-02T09:28:53.254Z,36.87
2023-06-02T09:29:04.656Z,36.87
2023-06-02T09:29:16.319Z,36.84
2023-06-02T09:29:27.654Z,36.86
2023-06-02T09:29:39.249Z,36.85
2023-06-02T09:29:51.815Z,36.86
2023-06-02T09:30:02.609Z,36.93
2023-06-02T09:30:14.235Z,36.85
2023-06-02T09:30:25.560Z,36.83
2023-06-02T09:30:37.172Z,36.85
2023-06-02T09:30:48.556Z,36.84
2023-06-02T09:31:00.167Z,36.84
2023-06-02T09:31:11.628Z,36.85
2023-06-02T09:31:23.321Z,36.83
2023-06-02T09:31:34.733Z,36.84
2023-06-02T09:31:46.394Z,36.81
2023-06-02T09:31:57.831Z,36.81
2023-06-02T09:32:09.496Z,36.82
2023-06-02T09:32:20.927Z,36.82
2023-06-02T09:32:32.710Z,36.83
2023-06-02T09:32:44.205Z,36.81
2023-06-02T09:32:55.878Z,36.80
2023-06-02T09:33:07.280Z,36.82
2023-06-02T09:33:19.058Z,36.80
2023-06-02T09:33:30.444Z,36.81
2023-06-02T09:33:42.009Z,36.81
2023-06-02T09:33:53.359Z,36.80
2023-06-02T09:34:05.019Z,36.82
2023-06-02T09:34:16.366Z,36.81
2023-06-02T09:34:27.962Z,36.82
2023-06-02T09:34:39.279Z,36.83
2023-06-02T09:34:50.856Z,36.83
2023-06-02T09:35:02.184Z,36.80
2023-06-02T09:35:13.779Z,36.81
2023-06-02T09:35:25.100Z,36.79
2023-06-02T09:35:36.687Z,36.80
2023-06-02T09:35:48.014Z,36.80
2023-06-02T09:36:01.216Z,36.80
2023-06-02T09:36:10.634Z,36.80
2023-06-02T09:36:22.247Z,36.81
2023-06-02T09:36:33.575Z,36.80
2023-06-02T09:36:45.200Z,36.80
2023-06-02T09:36:56.505Z,36.80
2023-06-02T09:37:08.090Z,36.82
2023-06-02T09:37:19.462Z,36.79
2023-06-02T09:37:31.041Z,36.80
2023-06-02T09:37:42.366Z,36.79
2023-06-02T09:37:53.939Z,36.82
2023-06-02T09:38:05.293Z,36.80
2023-06-02T09:38:16.889Z,36.79
2023-06-02T09:38:28.212Z,36.79
2023-06-02T09:38:39.809Z,36.82
2023-06-02T09:38:51.137Z,36.81
2023-06-02T09:39:02.780Z,36.80
2023-06-02T09:39:14.147Z,36.80
2023-06-02T09:39:25.731Z,36.82
2023-06-02T09:39:37.064Z,36.79
2023-06-02T09:39:48.640Z,36.81
2023-06-02T09:39:59.965Z,36.78
2023-06-02T09:40:11.543Z,36.81
2023-06-02T09:40:22.884Z,36.80
2023-06-02T09:40:34.491Z,36.80
2023-06-02T09:40:45.990Z,36.80
2023-06-02T09:40:57.558Z,36.80
2023-06-02T09:41:08.914Z,36.82
2023-06-02T09:41:21.489Z,36.81
2023-06-02T09:41:30.722Z,36.76
2023-06-02T09:41:42.303Z,36.80
2023-06-02T09:41:53.644Z,36.79
2023-06-02T09:42:05.239Z,36.80
2023-06-02T09:42:16.580Z,36.81
2023-06-02T09:42:28.162Z,36.82
2023-06-02T09:42:39.495Z,36.81
2023-06-02T09:42:51.096Z,36.82
2023-06-02T09:43:02.406Z,36.82
2023-06-02T09:43:13.980Z,36.81
2023-06-02T09:43:25.320Z,36.81
2023-06-02T09:43:36.933Z,36.81
2023-06-02T09:43:48.283Z,36.81
2023-06-02T09:43:59.873Z,36.83
2023-06-02T09:44:11.190Z,36.81
2023-06-02T09:44:22.829Z,36.82
2023-06-02T09:44:34.162Z,36.80
2023-06-02T09:44:45.773Z,36.82
2023-06-02T09:44:57.106Z,36.82
2023-06-02T09:45:08.687Z,36.81
2023-06-02T09:45:20.027Z,36.81
2023-06-02T09:45:31.679Z,36.82
2023-06-02T09:45:43.133Z,36.82
2023-06-02T09:45:54.922Z,36.83
2023-06-02T09:46:06.525Z,36.84
2023-06-02T09:46:18.387Z,36.84
2023-06-02T09:46:29.849Z,36.81
2023-06-02T09:46:41.806Z,36.84
2023-06-02T09:46:53.466Z,36.84
2023-06-02T09:47:05.227Z,36.83
2023-06-02T09:47:16.632Z,36.82
2023-06-02T09:47:28.445Z,36.82
2023-06-02T09:47:40.049Z,36.86
2023-06-02T09:47:51.850Z,36.84
2023-06-02T09:48:03.235Z,36.84
2023-06-02T09:48:15.011Z,36.84
2023-06-02T09:48:26.414Z,36.85
2023-06-02T09:48:38.129Z,36.84
2023-06-02T09:48:49.615Z,36.82
2023-06-02T09:49:01.293Z,36.82
2023-06-02T09:49:12.787Z,36.85
2023-06-02T09:49:24.412Z,36.85
2023-06-02T09:49:35.746Z,36.83
2023-06-02T09:49:47.331Z,36.83
2023-06-02T09:49:58.674Z,36.83
2023-06-02T09:50:10.331Z,36.84
2023-06-02T09:50:21.660Z,36.83
2023-06-02T09:50:33.250Z,36.83
2023-06-02T09:50:44.580Z,36.86
2023-06-02T09:50:56.166Z,36.84
2023-06-02T09:51:07.508Z,36.84
2023-06-02T09:51:19.095Z,36.83
2023-06-02T09:51:30.429Z,36.85
2023-06-02T09:51:42.007Z,36.84
2023-06-02T09:51:53.313Z,36.84
2023-06-02T09:52:04.915Z,36.84
2023-06-02T09:52:16.346Z,36.85
2023-06-02T09:52:28.008Z,36.84
2023-06-02T09:52:39.366Z,36.85
2023-06-02T09:52:50.944Z,36.84
2023-06-02T09:53:02.278Z,36.85
2023-06-02T09:53:13.860Z,36.86
2023-06-02T09:53:25.198Z,36.86
2023-06-02T09:53:36.794Z,36.86
2023-06-02T09:53:48.120Z,36.83
2023-06-02T09:53:59.706Z,36.85
2023-06-02T09:54:11.065Z,36.83
2023-06-02T09:54:22.630Z,36.85
2023-06-02T09:54:33.949Z,36.85
2023-06-02T09:54:45.532Z,36.83
2023-06-02T09:54:56.857Z,36.86
2023-06-02T09:55:08.473Z,36.84
2023-06-02T09:55:19.902Z,36.86
2023-06-02T09:55:31.447Z,36.83
2023-06-02T09:55:42.776Z,36.88
2023-06-02T09:55:54.385Z,36.85
2023-06-02T09:56:05.922Z,36.85
2023-06-02T09:56:17.551Z,36.85
2023-06-02T09:56:28.879Z,36.85
2023-06-02T09:56:40.469Z,36.87
2023-06-02T09:56:51.795Z,36.86
2023-06-02T09:57:03.377Z,36.87
2023-06-02T09:57:14.755Z,36.90
2023-06-02T09:57:26.335Z,36.86
2023-06-02T09:57:37.702Z,36.89
2023-06-02T09:57:49.274Z,36.88
2023-06-02T09:58:00.618Z,36.86
2023-06-02T09:58:12.184Z,36.86
2023-06-02T09:58:23.513Z,36.85
2023-06-02T09:58:35.123Z,36.89
2023-06-02T09:58:46.457Z,36.88
2023-06-02T09:58:58.058Z,36.85
2023-06-02T09:59:09.411Z,36.85
2023-06-02T09:59:20.995Z,36.86
2023-06-02T09:59:32.328Z,36.87
2023-06-02T09:59:43.914Z,36.88
2023-06-02T09:59:55.249Z,36.88
2023-06-02T10:00:06.846Z,36.86
2023-06-02T10:00:18.214Z,36.88
2023-06-02T10:00:29.801Z,36.85
2023-06-02T10:00:41.148Z,36.86
2023-06-02T10:00:52.784Z,36.86
2023-06-02T10:01:04.291Z,36.86
2023-06-02T10:01:16.099Z,36.87
2023-06-02T10:01:27.458Z,36.87
2023-06-02T10:01:39.109Z,36.88
2023-06-02T10:01:50.606Z,36.86
2023-06-02T10:02:02.339Z,36.87
2023-06-02T10:02:13.773Z,36.87
2023-06-02T10:02:25.463Z,36.85
2023-06-02T10:02:38.416Z,36.87
2023-06-02T10:02:47.901Z,36.92
2023-06-02T10:02:59.615Z,36.89
2023-06-02T10:03:11.151Z,36.88
2023-06-02T10:03:22.872Z,36.88
2023-06-02T10:03:34.353Z,36.87
2023-06-02T10:03:46.229Z,36.89
2023-06-02T10:03:57.656Z,36.88
2023-06-02T10:04:09.293Z,36.86
2023-06-02T10:04:20.589Z,36.87
2023-06-02T10:04:32.175Z,36.87
2023-06-02T10:04:43.538Z,36.88
2023-06-02T10:04:55.103Z,36.88
2023-06-02T10:05:06.447Z,36.88
2023-06-02T10:05:18.021Z,36.88
2023-06-02T10:05:29.473Z,36.85
2023-06-02T10:05:41.067Z,36.87
2023-06-02T10:05:52.398Z,36.88
2023-06-02T10:06:04.311Z,36.86
2023-06-02T10:06:16.112Z,36.84
2023-06-02T10:06:27.447Z,36.87
2023-06-02T10:06:39.096Z,36.87
2023-06-02T10:06:50.423Z,36.88
2023-06-02T10:07:02.001Z,36.86
2023-06-02T10:07:13.325Z,36.88
2023-06-02T10:07:24.930Z,36.87
2023-06-02T10:07:36.253Z,36.88
2023-06-02T10:07:47.855Z,36.87
2023-06-02T10:07:59.206Z,36.89
2023-06-02T10:08:10.778Z,36.88
2023-06-02T10:08:22.112Z,36.88
2023-06-02T10:08:33.694Z,36.87
2023-06-02T10:08:45.014Z,36.89
2023-06-02T10:08:56.646Z,36.87
2023-06-02T10:09:07.951Z,36.88
2023-06-02T10:09:19.549Z,36.86
2023-06-02T10:09:30.893Z,36.86
2023-06-02T10:09:42.501Z,36.90
2023-06-02T10:09:53.815Z,36.89
2023-06-02T10:10:05.393Z,36.88
2023-06-02T10:10:16.709Z,36.86
2023-06-02T10:10:28.286Z,36.88
2023-06-02T10:10:39.610Z,36.88
2023-06-02T10:10:51.202Z,36.89
2023-06-02T10:11:02.779Z,36.89
2023-06-02T10:11:14.546Z,36.90
2023-06-02T10:11:25.896Z,36.89
2023-06-02T10:11:37.460Z,36.87
2023-06-02T10:11:48.785Z,36.88
2023-06-02T10:12:00.385Z,36.91
2023-06-02T10:12:11.701Z,36.88
2023-06-02T10:12:23.321Z,36.87
2023-06-02T10:12:34.647Z,36.89
2023-06-02T10:12:46.257Z,36.87
2023-06-02T10:12:57.576Z,36.88
2023-06-02T10:13:09.175Z,36.89
2023-06-02T10:13:20.506Z,36.89
2023-06-02T10:13:32.087Z,36.89
2023-06-02T10:13:43.405Z,36.90
2023-06-02T10:13:56.571Z,36.86
2023-06-02T10:14:06.014Z,36.87
2023-06-02T10:14:17.585Z,36.86
2023-06-02T10:14:28.913Z,36.88
2023-06-02T10:14:40.526Z,36.87
2023-06-02T10:14:52.122Z,36.90
2023-06-02T10:15:03.723Z,36.90